VVJ weather

Sinai Airport
Villavieja, Huila Department, Colombia

Public forecast

Using degrees Celsius for public forecast. Weather courtesy of forecast.io.

Closest aviation weather report (METAR) to Sinai Airport

Closest report is Benito Salas Airport, 23.8 nm (44.1 km) SSW. Retrieved 2019/10/18 17:00 UTC (17 minutes ago):

SKNV 181700Z VRB03KT 9999 SCT030 30/20 A2991

Closest aviation forecast (TAF) to Sinai Airport

Closest forecast is Alfonso Bonilla Aragon International Airport, 72.8 nm (134.8 km) W. Retrieved 2019/10/18 12:30 UTC (5 hours ago):

TAF SKCL 181030Z 1812/1912 VRB03KT 9999 SCT020 SCT090 TEMPO 1812/1813 8000 DZ SCT020 BKN090 BECMG 1815/1817 32008KT TEMPO 1820/1902 5000 TSRA SCT018CB TX30/1819Z TN18/1911Z